KCFV

Details ICAO KCFV
Name COFFEYVILLE MUNI
Region United States
Timezone America/Chicago (UTC-6.0)
Plans Departing 1
Arriving 0
Stats Elevation 754 ft / 230 m (AMSL)
Location 37.093772° -95.571323°
Runways 2
Magnetic Variation 2.430° E
Sunrise 2017-12-14 13:29:28 UTC / 2017-12-14 07:29:28 Local
Sunset 2017-12-14 23:07:30 UTC / 2017-12-14 17:07:30 Local
Advertisement - Login to hide

Runways

ID Width Length Bearing (true) Bearing (mag) Surface Threshold Offset Overrun Length
04 75 ft / 23 m 3,864 ft / 1,178 m 43.89° 41.46° Asphalt 0 ft / 0 m 0 ft / 0 m
17 100 ft / 30 m 5,879 ft / 1,792 m 179.84° 177.41° Asphalt 0 ft / 0 m 0 ft / 0 m
22 75 ft / 23 m 3,864 ft / 1,178 m 223.90° 221.47° Asphalt 0 ft / 0 m 0 ft / 0 m
35 100 ft / 30 m 5,879 ft / 1,792 m 359.84° 357.41° Asphalt 0 ft / 0 m 0 ft / 0 m

Map

Weather


0- 5 10 15 20 25 30 35+ Temperature / ° C

Clouds and Precipitation
Forecast for 2017-12-15 00:00 UTC. Updated 6 minutes ago

Ground ~20,000 ft ~40,000 ft Winds

METAR

KCFV 142252Z AUTO 03003KT 10SM CLR 06/M03 A3010 RMK AO2 SLP199 T00561033

TAF

Not found

Frequencies

Recorded 121.27 MHz ASOS
Unicom 123.00 MHz CTAF/UNICOM
Warning: Do not use this data for real-world aviation or navigation. No guarantee of current accuracy is given.